Time;durP1;ratioP1;P1;durP2;ratioP2;P2;SDS_P1;SDS_P2;PMS_P1;PMS_P2;Temp;Humidity;BMP_temperature;BMP_pressure;BME280_temperature;BME280_humidity;BME280_pressure;Samples;Min_cycle;Max_cycle;Signal;HPM_P1;HPM_P2
2022/02/04 00:20:37;;;;;;;0.30;0.10;;;;;;;8.44;100.00;100112.72;5033398;28;20554;-51
2022/02/04 00:26:15;;;;;;;0.30;0.20;;;;;;;8.14;100.00;100114.22;5010911;28;20531;-52
2022/02/04 00:34:21;;;;;;;0.30;0.30;;;;;;;8.01;100.00;100132.16;5010808;28;20539;-51
2022/02/04 00:39:35;;;;;;;0.30;0.20;;;;;;;8.01;100.00;100115.41;5023403;28;20490;-51
2022/02/04 00:42:07;;;;;;;0.30;0.20;;;;;;;8.10;100.00;100119.63;5032952;28;20513;-51
2022/02/04 00:44:36;;;;;;;0.30;0.20;;;;;;;8.24;100.00;100109.63;5032681;28;20956;-51
2022/02/04 00:47:26;;;;;;;0.30;0.10;;;;;;;8.03;100.00;100114.44;5032887;28;20451;-51
2022/02/04 00:52:40;;;;;;;0.30;0.20;;;;;;;8.08;100.00;100117.00;5032513;28;20491;-51
2022/02/04 00:55:32;;;;;;;0.60;0.60;;;;;;;8.07;100.00;100112.59;5032330;28;20531;-51
2022/02/04 01:28:22;;;;;;;0.20;0.10;;;;;;;8.27;100.00;100114.84;5032837;28;20501;-51
2022/02/04 01:30:49;;;;;;;0.30;0.20;;;;;;;8.17;100.00;100123.88;5023377;28;20518;-51
2022/02/04 01:33:16;;;;;;;0.30;0.20;;;;;;;8.13;100.00;100123.09;5032246;28;20490;-51
2022/02/04 01:35:42;;;;;;;0.20;0.20;;;;;;;8.12;100.00;100125.75;5032143;28;20471;-51
2022/02/04 01:38:09;;;;;;;0.30;0.20;;;;;;;7.98;100.00;100132.22;5021834;28;20815;-51
2022/02/04 01:40:35;;;;;;;0.20;0.20;;;;;;;8.03;100.00;100130.34;5032040;28;20541;-51
2022/02/04 01:43:02;;;;;;;0.30;0.20;;;;;;;7.88;100.00;100130.66;5038199;28;20534;-50
2022/02/04 01:45:28;;;;;;;0.30;0.20;;;;;;;7.93;100.00;100128.78;5038473;28;20590;-50
2022/02/04 01:47:56;;;;;;;0.30;0.20;;;;;;;8.06;100.00;100128.53;5038975;28;20451;-50
2022/02/04 01:50:25;;;;;;;0.20;0.20;;;;;;;7.94;100.00;100125.22;5038436;28;20522;-51
2022/02/04 01:52:52;;;;;;;2.23;2.23;;;;;;;7.99;100.00;100128.66;5038786;28;20509;-50
2022/02/04 01:55:18;;;;;;;0.30;0.20;;;;;;;8.06;100.00;100128.53;5038544;28;20952;-51
2022/02/04 01:57:45;;;;;;;0.30;0.10;;;;;;;8.18;100.00;100118.53;5038529;28;20894;-51
2022/02/04 02:00:12;;;;;;;0.20;0.10;;;;;;;8.22;100.00;100122.00;5038775;28;20502;-51
2022/02/04 02:02:39;;;;;;;0.30;0.20;;;;;;;8.17;100.00;100129.19;5038820;28;20538;-51
2022/02/04 02:05:06;;;;;;;0.20;0.20;;;;;;;8.22;100.00;100114.94;5038447;28;20570;-51
2022/02/04 02:07:40;;;;;;;0.30;0.20;;;;;;;7.96;100.00;100120.78;5038539;28;20490;-51
2022/02/04 02:10:14;;;;;;;0.30;0.20;;;;;;;7.90;100.00;100107.66;5038186;28;20463;-51
2022/02/04 02:15:40;;;;;;;0.30;0.20;;;;;;;7.90;100.00;100112.09;5038426;28;20477;-51
2022/02/04 02:53:36;;;;;;;0.30;0.20;;;;;;;8.09;100.00;100094.06;5036342;28;20538;-51
2022/02/04 02:58:49;;;;;;;0.53;0.53;;;;;;;7.92;100.00;100094.41;5034943;28;20471;-51
2022/02/04 03:01:16;;;;;;;0.30;0.20;;;;;;;7.84;100.00;100105.16;5035050;28;20550;-51
2022/02/04 03:03:47;;;;;;;0.20;0.20;;;;;;;7.81;100.00;100094.66;5034568;28;21013;-50
2022/02/04 03:06:14;;;;;;;0.50;0.50;;;;;;;7.89;100.00;100097.13;5034807;28;20538;-50
2022/02/04 03:08:40;;;;;;;0.30;0.20;;;;;;;7.84;100.00;100099.88;5034335;28;20470;-50
2022/02/04 03:11:08;;;;;;;0.30;0.20;;;;;;;7.77;100.00;100108.81;5034854;28;20467;-50
2022/02/04 03:13:35;;;;;;;0.20;0.10;;;;;;;7.93;100.00;100096.16;5034553;28;20478;-50
2022/02/04 03:16:06;;;;;;;0.20;0.20;;;;;;;7.93;100.00;100109.38;5034789;28;20896;-51
2022/02/04 03:18:36;;;;;;;0.30;0.20;;;;;;;7.91;100.00;100105.91;5034465;28;20451;-51
2022/02/04 03:21:24;;;;;;;0.20;0.20;;;;;;;7.95;100.00;100103.19;5034321;28;20492;-51
2022/02/04 03:23:56;;;;;;;0.20;0.10;;;;;;;7.86;100.00;100108.66;5034719;28;20486;-50
2022/02/04 03:26:43;;;;;;;0.20;0.10;;;;;;;8.06;100.00;100112.63;5034156;28;20602;-51
2022/02/04 03:29:10;;;;;;;0.20;0.10;;;;;;;8.05;100.00;100097.66;5024023;28;20489;-51
2022/02/04 03:31:43;;;;;;;0.20;0.20;;;;;;;8.20;100.00;100103.50;5009462;28;20554;-51
2022/02/04 03:34:09;;;;;;;0.20;0.10;;;;;;;7.87;100.00;100112.16;5034191;28;20518;-51
2022/02/04 03:36:36;;;;;;;0.20;0.10;;;;;;;8.24;100.00;100106.97;5029410;28;20548;-50
2022/02/04 03:39:03;;;;;;;0.30;0.20;;;;;;;8.07;100.00;100112.59;5029572;28;20991;-51
2022/02/04 03:41:30;;;;;;;0.20;0.20;;;;;;;7.94;100.00;100104.06;5034310;28;20555;-50
2022/02/04 03:43:57;;;;;;;0.30;0.17;;;;;;;7.89;100.00;100107.72;5033936;28;20956;-51
2022/02/04 03:46:23;;;;;;;0.30;0.20;;;;;;;7.95;100.00;100107.59;5034388;28;20515;-51
2022/02/04 03:48:50;;;;;;;0.20;0.20;;;;;;;8.01;100.00;100102.16;5033749;28;21014;-53
2022/02/04 03:51:16;;;;;;;0.20;0.20;;;;;;;7.89;100.00;100105.94;5033940;28;20507;-51
2022/02/04 03:53:43;;;;;;;0.30;0.20;;;;;;;7.86;100.00;100102.47;5033757;28;20483;-52
2022/02/04 03:56:10;;;;;;;0.30;0.20;;;;;;;7.88;100.00;100103.31;5033853;28;20510;-52
2022/02/04 03:58:37;;;;;;;1.50;1.40;;;;;;;7.83;100.00;100103.44;5033517;28;20539;-52
2022/02/04 04:01:05;;;;;;;5.73;3.50;;;;;;;7.95;100.00;100103.19;5033895;28;20467;-52
2022/02/04 04:03:32;;;;;;;0.27;0.20;;;;;;;8.00;100.00;100093.34;5033743;28;20466;-52
2022/02/04 04:05:59;;;;;;;0.30;0.20;;;;;;;8.07;100.00;100101.16;5033368;28;20523;-51
2022/02/04 04:08:26;;;;;;;0.20;0.20;;;;;;;7.87;100.00;100101.56;5033521;28;20444;-52
2022/02/04 04:10:53;;;;;;;0.23;0.20;;;;;;;7.79;100.00;100100.84;5033515;28;20546;-52
2022/02/04 04:13:20;;;;;;;0.30;0.20;;;;;;;7.74;100.00;100103.59;5033355;28;20864;-52
2022/02/04 04:15:47;;;;;;;0.30;0.20;;;;;;;7.82;100.00;100098.16;5033687;28;20884;-52
2022/02/04 04:18:14;;;;;;;0.30;0.20;;;;;;;7.81;100.00;100102.59;5033437;28;20475;-52
2022/02/04 04:20:44;;;;;;;0.23;0.17;;;;;;;7.73;100.00;100097.44;5033506;28;20500;-52
2022/02/04 04:23:11;;;;;;;0.20;0.20;;;;;;;7.72;100.00;100097.47;5033316;28;20530;-52
2022/02/04 04:25:39;;;;;;;0.20;0.20;;;;;;;7.86;100.00;100091.91;5033210;28;20578;-52
2022/02/04 04:28:06;;;;;;;0.20;0.20;;;;;;;8.12;100.00;100096.66;5033813;28;20530;-52
2022/02/04 04:30:32;;;;;;;0.30;0.20;;;;;;;8.15;100.00;100097.44;5000572;28;20470;-52
2022/02/04 04:32:59;;;;;;;0.20;0.13;;;;;;;7.92;100.00;100095.28;5031543;28;20455;-51
2022/02/04 04:35:28;;;;;;;0.20;0.20;;;;;;;7.91;100.00;100100.59;5033398;28;20452;-52
2022/02/04 04:38:03;;;;;;;0.23;0.13;;;;;;;8.07;100.00;100102.03;5023387;28;20994;-52
2022/02/04 04:40:53;;;;;;;0.20;0.20;;;;;;;7.91;100.00;100106.75;5032900;28;20551;-52
2022/02/04 05:27:41;;;;;;;0.30;0.20;;;;;;;8.02;100.00;100109.19;5032125;28;20582;-52
2022/02/04 05:29:32;;;;;;;0.20;0.20;;;;;;;8.07;100.00;100093.19;5015578;28;20532;-52
2022/02/04 05:31:59;;;;;;;0.30;0.10;;;;;;;8.25;100.00;100093.69;5013341;28;20507;-52
2022/02/04 05:34:26;;;;;;;0.30;0.20;;;;;;;8.17;100.00;100095.63;5031890;28;20482;-52
2022/02/04 05:37:06;;;;;;;0.30;0.20;;;;;;;8.21;100.00;100099.06;5025605;28;20535;-51
2022/02/04 05:39:41;;;;;;;0.23;0.13;;;;;;;8.17;100.00;100100.91;5031531;28;20447;-51
2022/02/04 05:42:09;;;;;;;0.40;0.40;;;;;;;7.96;100.00;100107.56;5031928;28;20500;-51
2022/02/04 05:44:41;;;;;;;0.23;0.20;;;;;;;7.99;100.00;100098.69;5032033;28;20487;-51
2022/02/04 05:47:17;;;;;;;0.30;0.20;;;;;;;7.89;100.00;100103.28;5032071;28;20567;-51
2022/02/04 05:49:59;;;;;;;0.20;0.20;;;;;;;7.92;100.00;100100.56;5032106;28;20570;-52
2022/02/04 05:52:28;;;;;;;0.30;0.10;;;;;;;7.91;100.00;100104.13;5031872;28;20471;-52
2022/02/04 05:57:59;;;;;;;0.30;0.20;;;;;;;7.87;100.00;100107.75;5005893;28;20476;-51
2022/02/04 06:03:01;;;;;;;0.20;0.10;;;;;;;8.01;100.00;100107.47;5031943;28;20530;-51
2022/02/04 06:06:06;;;;;;;0.20;0.20;;;;;;;7.92;100.00;100108.50;5031670;28;20482;-51
2022/02/04 06:11:32;;;;;;;0.40;0.30;;;;;;;7.93;100.00;100119.97;5031728;28;20546;-51
2022/02/04 06:22:18;;;;;;;0.30;0.20;;;;;;;8.03;100.00;100119.75;5031677;28;20499;-51
2022/02/04 06:24:49;;;;;;;0.20;0.20;;;;;;;7.96;100.00;100123.44;5031464;28;20534;-52
2022/02/04 06:27:17;;;;;;;0.53;0.53;;;;;;;7.89;100.00;100119.16;5031918;28;20575;-51
2022/02/04 06:29:45;;;;;;;0.30;0.20;;;;;;;8.02;100.00;100118.00;5015793;28;20528;-51
2022/02/04 06:32:14;;;;;;;0.30;0.17;;;;;;;8.13;100.00;100109.84;5020418;28;20506;-52
2022/02/04 06:34:41;;;;;;;0.20;0.20;;;;;;;8.08;100.00;100110.81;5035303;28;20526;-52
2022/02/04 06:37:08;;;;;;;0.20;0.10;;;;;;;8.15;100.00;100113.31;5025792;28;20487;-51
2022/02/04 06:39:34;;;;;;;1.60;0.70;;;;;;;8.12;100.00;100099.28;5034542;28;20483;-51
2022/02/04 06:42:03;;;;;;;0.30;0.30;;;;;;;7.96;100.00;100085.53;5035171;28;20471;-51
2022/02/04 06:44:30;;;;;;;0.20;0.20;;;;;;;7.90;100.00;100088.28;5035122;28;20534;-51
2022/02/04 06:46:57;;;;;;;0.20;0.10;;;;;;;7.91;100.00;100093.53;5035123;28;20545;-51
2022/02/04 06:49:24;;;;;;;0.30;0.20;;;;;;;8.01;100.00;100091.56;5034917;28;20483;-52
2022/02/04 06:51:50;;;;;;;0.30;0.30;;;;;;;7.92;100.00;100092.63;5034702;28;20562;-51
2022/02/04 06:54:17;;;;;;;0.20;0.20;;;;;;;7.95;100.00;100097.00;5034954;28;20490;-52
2022/02/04 06:56:44;;;;;;;0.20;0.20;;;;;;;8.15;100.00;100107.16;5034930;28;20456;-52
2022/02/04 06:59:10;;;;;;;0.30;0.20;;;;;;;7.96;100.00;100098.75;5034943;28;20452;-51
2022/02/04 07:01:37;;;;;;;1.17;1.17;;;;;;;7.83;100.00;100095.50;5034622;28;21019;-52
2022/02/04 07:04:06;;;;;;;0.30;0.30;;;;;;;7.88;100.00;100093.59;5034698;28;20451;-51
2022/02/04 07:06:37;;;;;;;0.23;0.20;;;;;;;7.95;100.00;100091.72;5034751;28;20534;-52
2022/02/04 07:17:28;;;;;;;0.30;0.20;;;;;;;8.06;100.00;100102.06;5033165;28;20483;-51
2022/02/04 07:19:56;;;;;;;0.20;0.13;;;;;;;8.02;100.00;100101.25;5034366;28;20578;-51
2022/02/04 07:22:29;;;;;;;0.20;0.10;;;;;;;8.12;100.00;100094.00;5034518;28;20543;-51
2022/02/04 07:24:59;;;;;;;0.30;0.20;;;;;;;8.32;100.00;100097.06;5034968;28;20502;-51
2022/02/04 07:27:27;;;;;;;0.30;0.20;;;;;;;8.23;100.00;100098.16;5034478;28;21022;-51
2022/02/04 07:29:54;;;;;;;0.30;0.20;;;;;;;8.28;100.00;100095.41;5012123;28;20484;-51
2022/02/04 07:43:00;;;;;;;0.20;0.20;;;;;;;8.23;100.00;100110.53;5033972;28;20961;-51
2022/02/04 07:45:27;;;;;;;0.30;0.20;;;;;;;8.27;100.00;100109.53;5033889;28;20448;-51
2022/02/04 07:47:56;;;;;;;0.20;0.20;;;;;;;8.32;100.00;100115.59;5033857;28;20495;-51
2022/02/04 07:50:23;;;;;;;0.20;0.10;;;;;;;8.28;100.00;100106.84;5033596;28;20930;-51
2022/02/04 07:52:51;;;;;;;0.30;0.20;;;;;;;8.27;100.00;100110.41;5034054;28;20556;-51
2022/02/04 07:55:18;;;;;;;0.27;0.20;;;;;;;8.32;100.00;100107.66;5033584;28;20635;-51
2022/02/04 07:57:45;;;;;;;0.30;0.20;;;;;;;8.19;100.00;100112.34;5016243;28;20478;-51
2022/02/04 08:00:15;;;;;;;0.30;0.20;;;;;;;8.32;100.00;100108.53;5013388;28;20519;-51
2022/02/04 08:02:45;;;;;;;0.20;0.20;;;;;;;8.37;100.00;100102.31;5033772;28;20451;-51
2022/02/04 08:05:16;;;;;;;0.20;0.10;;;;;;;8.45;100.00;100095.03;5033518;28;20971;-51
2022/02/04 08:07:53;;;;;;;0.27;0.20;;;;;;;8.33;100.00;100090.84;5033731;28;20519;-52
2022/02/04 08:13:29;;;;;;;0.20;0.20;;;;;;;8.28;100.00;100087.44;5033387;28;20486;-50
2022/02/04 08:26:48;;;;;;;0.30;0.10;;;;;;;8.47;100.00;100091.44;5033241;28;20472;-51
2022/02/04 08:50:45;;;;;;;0.20;0.20;;;;;;;8.45;100.00;100081.78;5032253;28;20500;-51
2022/02/04 08:55:58;;;;;;;0.20;0.20;;;;;;;8.64;100.00;100077.81;5032801;28;20448;-51
2022/02/04 09:03:30;;;;;;;0.30;0.20;;;;;;;8.64;100.00;100075.19;5032655;28;20542;-52
2022/02/04 09:06:16;;;;;;;0.30;0.30;;;;;;;8.50;100.00;100077.28;5032649;28;20481;-51
2022/02/04 09:08:47;;;;;;;0.30;0.20;;;;;;;8.35;100.00;100081.13;5032218;28;20573;-51
2022/02/04 09:11:25;;;;;;;0.20;0.20;;;;;;;8.41;100.00;100077.47;5032405;28;20525;-51
2022/02/04 09:19:24;;;;;;;0.30;0.20;;;;;;;8.70;100.00;100076.78;5032316;28;20535;-51
2022/02/04 09:24:19;;;;;;;0.40;0.37;;;;;;;8.78;100.00;100074.84;5031212;28;20482;-51
2022/02/04 09:26:46;;;;;;;0.20;0.10;;;;;;;8.67;100.00;100069.78;5032262;28;20498;-51
2022/02/04 09:29:12;;;;;;;0.30;0.20;;;;;;;8.68;100.00;100062.72;5021204;28;20887;-52
2022/02/04 09:31:39;;;;;;;0.20;0.20;;;;;;;8.76;100.00;100061.59;5008314;28;20546;-51
2022/02/04 09:34:07;;;;;;;0.20;0.10;;;;;;;8.70;100.00;100072.38;5031828;28;20896;-51
2022/02/04 09:36:35;;;;;;;0.30;0.20;;;;;;;8.91;100.00;100063.03;5027364;28;20503;-51
2022/02/04 09:39:03;;;;;;;0.20;0.20;;;;;;;8.82;100.00;100069.41;5027746;28;20483;-51
2022/02/04 09:41:29;;;;;;;0.27;0.20;;;;;;;8.83;100.00;100057.91;5031982;28;20892;-51
2022/02/04 09:43:56;;;;;;;0.20;0.10;;;;;;;8.77;100.00;100057.16;5031928;28;20444;-51
2022/02/04 09:46:23;;;;;;;0.30;0.20;;;;;;;8.93;100.00;100063.84;5032050;28;20487;-51
2022/02/04 09:48:55;;;;;;;0.20;0.20;;;;;;;8.89;100.00;100057.72;5031800;28;20603;-51
2022/02/04 09:51:32;;;;;;;0.20;0.20;;;;;;;8.87;100.00;100056.03;5047280;28;20555;-52
2022/02/04 10:08:02;;;;;;;0.30;0.20;;;;;;;8.70;100.00;100051.16;5035750;28;20530;-51
2022/02/04 10:18:12;;;;;;;0.20;0.10;;;;;;;8.60;100.00;100033.75;5036157;28;20498;-52
2022/02/04 10:20:41;;;;;;;0.30;0.20;;;;;;;8.57;100.00;100032.03;5035691;28;20476;-52
2022/02/04 10:23:09;;;;;;;0.30;0.20;;;;;;;8.67;100.00;100027.41;5035676;28;20452;-51
2022/02/04 10:25:41;;;;;;;0.30;0.20;;;;;;;8.84;100.00;100027.84;5035836;28;20486;-52
2022/02/04 10:28:28;;;;;;;0.30;0.20;;;;;;;9.02;100.00;100036.22;5035490;28;20486;-51
2022/02/04 10:31:07;;;;;;;0.20;0.20;;;;;;;8.96;100.00;100025.78;5000411;28;20468;-52
2022/02/04 10:34:12;;;;;;;0.20;0.20;;;;;;;9.12;100.00;100032.41;5035666;28;20866;-51
2022/02/04 10:36:54;;;;;;;0.30;0.20;;;;;;;9.22;100.00;100030.38;5028850;28;20455;-51
2022/02/04 10:39:26;;;;;;;0.27;0.20;;;;;;;9.28;100.00;100031.06;5033634;28;20900;-51
2022/02/04 10:42:07;;;;;;;0.30;0.20;;;;;;;9.32;100.00;100019.50;5035222;28;20551;-51
2022/02/04 10:44:47;;;;;;;0.30;0.20;;;;;;;9.18;100.00;100018.97;5010886;28;20444;-51
2022/02/04 10:47:45;;;;;;;0.57;0.57;;;;;;;9.12;100.00;100014.72;5035314;28;20522;-52
2022/02/04 10:51:31;;;;;;;0.30;0.20;;;;;;;9.23;100.00;100016.22;5034908;28;20503;-52
2022/02/04 11:04:23;;;;;;;0.30;0.20;;;;;;;9.10;100.00;99998.00;5009133;28;20535;-51
2022/02/04 11:07:10;;;;;;;4.00;2.20;;;;;;;9.25;100.00;99988.72;5034792;28;20510;-51
2022/02/04 11:35:05;;;;;;;0.30;0.10;;;;;;;9.46;99.89;99945.69;5007987;28;20444;-51
2022/02/04 11:52:41;;;;;;;0.30;0.20;;;;;;;9.57;99.25;99907.34;5011754;28;20461;-51
2022/02/04 11:55:10;;;;;;;0.30;0.20;;;;;;;9.93;98.15;99903.53;5027333;28;20475;-50
2022/02/04 11:57:56;;;;;;;0.30;0.20;;;;;;;9.93;97.82;99902.66;5033756;28;20547;-51
2022/02/04 12:00:27;;;;;;;0.30;0.10;;;;;;;9.87;97.73;99898.44;5033533;28;21007;-50
2022/02/04 12:02:55;;;;;;;0.30;0.20;;;;;;;10.06;97.23;99899.56;5033928;28;20921;-50
2022/02/04 12:05:23;;;;;;;0.30;0.20;;;;;;;9.89;97.35;99891.28;5033425;28;20546;-51
2022/02/04 12:08:10;;;;;;;0.33;0.30;;;;;;;9.77;97.66;99889.03;5033448;28;20582;-50
2022/02/04 12:10:48;;;;;;;0.30;0.20;;;;;;;9.78;97.19;99874.84;5011827;28;20472;-50
2022/02/04 12:13:17;;;;;;;0.30;0.10;;;;;;;9.87;96.99;99881.59;5032145;28;20475;-50
2022/02/04 12:16:07;;;;;;;0.30;0.17;;;;;;;9.86;97.39;99875.44;5033564;28;20463;-51
2022/02/04 12:18:37;;;;;;;2.00;1.13;;;;;;;9.83;97.90;99875.53;5033783;28;20853;-51
2022/02/04 12:21:05;;;;;;;0.30;0.20;;;;;;;10.02;97.36;99863.41;5033426;28;20493;-49
2022/02/04 12:23:32;;;;;;;0.30;0.20;;;;;;;9.66;97.57;99872.56;5033350;28;20451;-50
2022/02/04 12:26:03;;;;;;;0.30;0.20;;;;;;;9.83;97.17;99858.75;5033037;28;20476;-50
2022/02/04 12:28:41;;;;;;;0.30;0.20;;;;;;;9.94;96.81;99859.28;5033227;28;20526;-50
2022/02/04 12:31:20;;;;;;;0.30;0.20;;;;;;;9.94;96.33;99856.63;5002078;28;20460;-50
2022/02/04 12:33:49;;;;;;;0.30;0.20;;;;;;;9.99;95.65;99852.88;5033141;28;20994;-50
2022/02/04 12:36:24;;;;;;;0.30;0.20;;;;;;;9.77;96.45;99852.72;5030531;28;20998;-50
2022/02/04 12:38:53;;;;;;;0.30;0.20;;;;;;;9.76;96.24;99844.81;5026833;28;20474;-50
2022/02/04 12:41:31;;;;;;;0.30;0.20;;;;;;;9.70;95.99;99845.88;5032837;28;20550;-50
2022/02/04 12:44:02;;;;;;;0.30;0.20;;;;;;;9.76;96.12;99832.41;5032797;28;20494;-50
2022/02/04 12:46:29;;;;;;;0.30;0.20;;;;;;;9.58;97.25;99827.69;5033206;28;20448;-50
2022/02/04 12:49:03;;;;;;;0.30;0.20;;;;;;;9.88;96.55;99838.25;5032559;28;20543;-51
2022/02/04 12:54:12;;;;;;;0.30;0.20;;;;;;;9.68;96.96;99833.56;5032640;28;20887;-50
2022/02/04 12:56:54;;;;;;;0.30;0.20;;;;;;;9.77;96.56;99826.19;5032550;28;20900;-50
2022/02/04 13:02:14;;;;;;;0.30;0.10;;;;;;;9.59;97.13;99804.66;5032937;28;20503;-49
2022/02/04 13:07:39;;;;;;;0.30;0.20;;;;;;;9.68;97.64;99807.91;5033036;28;20824;-50
2022/02/04 13:10:20;;;;;;;0.30;0.20;;;;;;;9.55;98.43;99801.25;5032789;28;20463;-49
2022/02/04 13:12:56;;;;;;;0.30;0.20;;;;;;;9.63;98.43;99798.38;5032511;28;20856;-49
2022/02/04 13:15:23;;;;;;;0.30;0.20;;;;;;;9.45;99.22;99799.81;5009254;28;20452;-49
2022/02/04 13:17:50;;;;;;;0.30;0.20;;;;;;;9.57;98.55;99791.47;5032402;28;20448;-48
2022/02/04 13:20:21;;;;;;;0.30;0.20;;;;;;;9.27;99.05;99789.78;5032301;28;20559;-48
2022/02/04 13:22:59;;;;;;;0.30;0.20;;;;;;;9.25;100.00;99783.66;5032051;28;20941;-49
2022/02/04 13:25:35;;;;;;;0.30;0.20;;;;;;;9.18;100.00;99793.59;5032284;28;20536;-48
2022/02/04 13:28:04;;;;;;;0.30;0.20;;;;;;;9.22;100.00;99781.13;5032310;28;20574;-49
2022/02/04 13:31:05;;;;;;;0.30;0.20;;;;;;;9.16;100.00;99790.97;5000658;28;20489;-48
2022/02/04 13:33:40;;;;;;;0.20;0.20;;;;;;;9.27;100.00;99773.88;5012183;28;20447;-50
2022/02/04 13:36:24;;;;;;;0.30;0.20;;;;;;;9.45;100.00;99763.53;5031325;28;20888;-49
2022/02/04 13:41:50;;;;;;;0.30;0.20;;;;;;;9.37;99.87;99757.63;5032324;28;20471;-49
2022/02/04 13:58:17;;;;;;;0.30;0.20;;;;;;;9.41;98.02;99719.47;5016680;28;20970;-49
2022/02/04 14:03:22;;;;;;;0.30;0.20;;;;;;;9.46;97.42;99716.69;5032024;28;20471;-49
2022/02/04 14:06:25;;;;;;;0.30;0.20;;;;;;;9.45;97.46;99709.63;5032076;28;20530;-49
2022/02/04 14:08:51;;;;;;;0.30;0.20;;;;;;;9.47;97.16;99702.50;5030523;28;20546;-49
2022/02/04 14:11:38;;;;;;;0.30;0.20;;;;;;;9.38;97.98;99710.75;5031587;28;20944;-51
2022/02/04 14:14:26;;;;;;;0.40;0.40;;;;;;;9.43;97.41;99712.31;5032011;28;20860;-48
2022/02/04 14:17:01;;;;;;;0.30;0.20;;;;;;;9.40;96.94;99700.94;5031482;28;20448;-51
2022/02/04 14:19:28;;;;;;;0.30;0.20;;;;;;;9.58;96.98;99702.13;5031659;28;21077;-49
2022/02/04 14:21:57;;;;;;;0.30;0.20;;;;;;;9.49;96.65;99703.31;5032067;28;20538;-49
2022/02/04 14:24:24;;;;;;;0.30;0.20;;;;;;;9.62;96.83;99698.47;5031558;28;20505;-49
2022/02/04 14:26:52;;;;;;;0.30;0.20;;;;;;;9.62;96.89;99701.97;5031844;28;20495;-49
2022/02/04 14:29:50;;;;;;;0.30;0.20;;;;;;;9.67;96.89;99705.31;5019164;28;20572;-48
2022/02/04 14:32:21;;;;;;;0.27;0.10;;;;;;;9.40;97.68;99706.25;5014599;28;20546;-48
2022/02/04 14:34:59;;;;;;;0.30;0.20;;;;;;;9.41;98.29;99708.84;5031836;28;20535;-48
2022/02/04 15:01:32;;;;;;;0.30;0.20;;;;;;;9.69;97.51;99692.00;5034718;28;20542;-48
2022/02/04 15:06:38;;;;;;;0.30;0.17;;;;;;;9.63;98.84;99698.41;5034644;28;20858;-50
2022/02/04 15:09:11;;;;;;;0.30;0.20;;;;;;;9.59;99.24;99696.75;5035652;28;21067;-48
2022/02/04 15:11:42;;;;;;;0.30;0.20;;;;;;;9.48;100.00;99698.94;5034467;28;20490;-48
2022/02/04 15:14:10;;;;;;;0.30;0.20;;;;;;;9.64;100.00;99692.19;5034742;28;20479;-48
2022/02/04 15:16:38;;;;;;;0.30;0.20;;;;;;;9.51;100.00;99698.81;5034350;28;20987;-48
2022/02/04 15:19:05;;;;;;;0.30;0.20;;;;;;;9.43;100.00;99695.53;5034648;28;20444;-50
2022/02/04 15:21:33;;;;;;;0.30;0.20;;;;;;;9.27;100.00;99700.50;5034131;28;20510;-48
2022/02/04 15:24:00;;;;;;;0.30;0.20;;;;;;;9.23;100.00;99698.00;5034319;28;20475;-48
2022/02/04 15:26:28;;;;;;;0.30;0.20;;;;;;;9.28;100.00;99690.75;5034366;28;20482;-48
2022/02/04 15:31:33;;;;;;;0.30;0.20;;;;;;;9.19;100.00;99676.03;5006033;28;20467;-48
2022/02/04 15:34:01;;;;;;;0.30;0.20;;;;;;;9.09;100.00;99693.13;5034262;28;20475;-49
2022/02/04 15:36:32;;;;;;;0.30;0.20;;;;;;;9.04;100.00;99687.09;5030216;28;20484;-48
2022/02/04 15:39:00;;;;;;;0.30;0.20;;;;;;;9.01;100.00;99693.38;5029059;28;20483;-51
2022/02/04 15:41:28;;;;;;;0.30;0.20;;;;;;;9.10;100.00;99685.13;5034314;28;20500;-51
2022/02/04 15:44:04;;;;;;;0.30;0.20;;;;;;;9.32;100.00;99685.31;5034046;28;20464;-50
2022/02/04 15:46:43;;;;;;;0.30;0.20;;;;;;;9.44;100.00;99687.53;5034159;28;20448;-48
2022/02/04 16:04:47;;;;;;;0.30;0.20;;;;;;;9.24;100.00;99676.72;5033729;28;20472;-49
2022/02/04 16:07:16;;;;;;;0.30;0.20;;;;;;;9.18;100.00;99675.16;5033811;28;20482;-48
2022/02/04 16:09:48;;;;;;;0.30;0.20;;;;;;;9.19;100.00;99670.72;5033405;28;20519;-50
2022/02/04 16:12:31;;;;;;;0.20;0.20;;;;;;;9.07;100.00;99658.72;5034269;28;20526;-48
2022/02/04 16:15:06;;;;;;;0.27;0.17;;;;;;;9.01;100.00;99664.22;5033641;28;20478;-48
2022/02/04 16:17:37;;;;;;;0.30;0.20;;;;;;;9.00;100.00;99654.53;5033662;28;20471;-49
2022/02/04 16:21:15;;;;;;;0.23;0.20;;;;;;;9.02;100.00;99650.03;5033641;28;20451;-48
2022/02/04 16:23:08;;;;;;;0.30;0.20;;;;;;;8.88;100.00;99650.50;5028447;28;20877;-52
2022/02/04 16:30:50;;;;;;;0.30;0.20;;;;;;;8.93;100.00;99636.25;4998462;28;20943;-48
2022/02/04 16:33:16;;;;;;;0.30;0.20;;;;;;;8.96;100.00;99637.00;5033368;28;20534;-49
2022/02/04 16:35:43;;;;;;;0.30;0.20;;;;;;;8.94;100.00;99646.78;5033116;28;20459;-49
2022/02/04 16:38:16;;;;;;;0.20;0.20;;;;;;;8.86;100.00;99654.09;5023183;28;20447;-49
2022/02/04 16:40:52;;;;;;;0.30;0.20;;;;;;;8.98;100.00;99656.38;5032814;28;20471;-48
2022/02/04 16:43:18;;;;;;;0.30;0.20;;;;;;;9.03;100.00;99657.06;5032935;28;20949;-48
2022/02/04 16:45:45;;;;;;;0.30;0.20;;;;;;;8.92;100.00;99650.41;5032984;28;20545;-48
2022/02/04 16:48:12;;;;;;;0.30;0.20;;;;;;;8.93;100.00;99650.34;5032842;28;21035;-49
2022/02/04 16:50:41;;;;;;;0.30;0.17;;;;;;;9.03;100.00;99642.94;5032538;28;20582;-50
2022/02/04 16:53:08;;;;;;;0.30;0.20;;;;;;;9.09;100.00;99656.03;5032974;28;20483;-49
2022/02/04 16:55:35;;;;;;;0.30;0.20;;;;;;;9.02;100.00;99652.69;5032538;28;20484;-48
2022/02/04 16:58:01;;;;;;;0.30;0.20;;;;;;;9.05;100.00;99651.75;5032912;28;20479;-49
2022/02/04 17:00:28;;;;;;;0.27;0.20;;;;;;;9.06;100.00;99654.34;5032767;28;20467;-50
2022/02/04 17:02:59;;;;;;;0.30;0.20;;;;;;;9.12;100.00;99651.47;5032776;28;20809;-49
2022/02/04 17:05:35;;;;;;;0.30;0.20;;;;;;;9.26;100.00;99656.31;5047758;28;20536;-49
2022/02/04 17:08:07;;;;;;;0.30;0.20;;;;;;;9.18;100.00;99653.94;5032427;28;20483;-49
2022/02/04 17:10:38;;;;;;;0.30;0.20;;;;;;;9.28;100.00;99670.41;5032647;28;20530;-48
2022/02/04 17:13:05;;;;;;;0.30;0.20;;;;;;;9.29;100.00;99660.66;5031595;28;20484;-48
2022/02/04 17:15:34;;;;;;;0.30;0.10;;;;;;;9.10;100.00;99666.56;5032656;28;20927;-48
2022/02/04 17:18:02;;;;;;;0.30;0.20;;;;;;;9.15;100.00;99664.63;5032241;28;20543;-49
2022/02/04 17:20:30;;;;;;;0.30;0.20;;;;;;;9.05;100.00;99665.00;5032457;28;20546;-50
2022/02/04 17:23:01;;;;;;;0.30;0.20;;;;;;;9.10;100.00;99660.41;5032508;28;20489;-50
2022/02/04 17:25:34;;;;;;;0.30;0.20;;;;;;;9.15;100.00;99655.81;5032655;28;20906;-48
2022/02/04 17:28:01;;;;;;;0.30;0.20;;;;;;;9.12;100.00;99654.13;5032362;28;20479;-48
2022/02/04 17:30:28;;;;;;;0.30;0.20;;;;;;;9.44;100.00;99657.47;5001177;28;20580;-49
2022/02/04 17:32:55;;;;;;;0.27;0.20;;;;;;;9.20;100.00;99652.09;5028452;28;20526;-49
2022/02/04 17:35:24;;;;;;;0.30;0.20;;;;;;;9.22;100.00;99654.69;5032111;28;20527;-49
2022/02/04 17:37:54;;;;;;;0.30;0.20;;;;;;;9.18;100.00;99650.41;5022924;28;20487;-48
2022/02/04 17:40:21;;;;;;;0.70;0.70;;;;;;;9.27;100.00;99658.06;5032066;28;20506;-48
2022/02/04 17:42:48;;;;;;;0.30;0.20;;;;;;;9.24;100.00;99660.81;5032133;28;20480;-48
2022/02/04 17:45:19;;;;;;;0.20;0.13;;;;;;;9.31;100.00;99653.50;5032106;28;20537;-48
2022/02/04 17:47:54;;;;;;;0.30;0.20;;;;;;;9.23;100.00;99652.91;5031911;28;20976;-49
2022/02/04 17:51:13;;;;;;;0.23;0.20;;;;;;;9.30;100.00;99655.28;5031875;28;20499;-49
2022/02/04 17:53:18;;;;;;;0.30;0.20;;;;;;;9.17;100.00;99656.63;5024109;28;20869;-49
2022/02/04 17:55:53;;;;;;;0.30;0.20;;;;;;;9.03;100.00;99651.78;5030626;28;20543;-49
2022/02/04 18:08:26;;;;;;;0.30;0.20;;;;;;;9.26;100.00;99651.03;5031686;28;20470;-49
2022/02/04 18:10:54;;;;;;;0.20;0.20;;;;;;;9.32;100.00;99660.53;5031882;28;20499;-49
2022/02/04 18:13:22;;;;;;;0.30;0.20;;;;;;;9.28;100.00;99649.19;5031646;28;20937;-50
2022/02/04 18:15:49;;;;;;;0.27;0.20;;;;;;;9.22;100.00;99649.41;5032222;28;20546;-49
2022/02/04 18:18:17;;;;;;;0.20;0.13;;;;;;;9.42;100.00;99646.06;5031580;28;20892;-49
2022/02/04 18:20:44;;;;;;;0.30;0.20;;;;;;;9.38;100.00;99641.78;5031493;28;20503;-49
2022/02/04 18:23:19;;;;;;;0.20;0.17;;;;;;;9.27;100.00;99647.44;5031682;28;20458;-49
2022/02/04 18:25:48;;;;;;;0.30;0.20;;;;;;;9.32;100.00;99648.19;5035427;28;21331;-49